createdAt,value
2019-04-20T00:02:14.369Z,4.80
2019-04-20T00:06:17.563Z,5.22
2019-04-20T00:10:24.693Z,5.10
2019-04-20T00:14:33.866Z,5.20
2019-04-20T00:18:42.967Z,5.40
2019-04-20T00:22:59.760Z,5.33
2019-04-20T00:31:29.751Z,5.45
2019-04-20T00:35:20.965Z,5.60
2019-04-20T00:39:27.889Z,5.55
2019-04-20T00:43:37.312Z,5.17
2019-04-20T00:47:50.102Z,5.45
2019-04-20T00:52:18.746Z,5.10
2019-04-20T00:55:57.046Z,5.03
2019-04-20T01:00:22.897Z,5.30
2019-04-20T01:04:34.590Z,5.20
2019-04-20T01:08:27.461Z,5.40
2019-04-20T01:12:36.815Z,5.05
2019-04-20T01:16:47.059Z,5.10
2019-04-20T01:20:47.882Z,5.10
2019-04-20T01:24:54.960Z,5.20
2019-04-20T01:29:15.889Z,5.37
2019-04-20T01:33:24.342Z,4.95
2019-04-20T01:37:31.716Z,5.12
2019-04-20T01:41:24.349Z,5.25
2019-04-20T01:45:36.260Z,5.30
2019-04-20T01:49:41.843Z,5.33
2019-04-20T01:54:06.710Z,5.35
2019-04-20T01:58:36.444Z,5.22
2019-04-20T02:02:35.526Z,5.22
2019-04-20T02:06:48.116Z,4.87
2019-04-20T02:10:53.717Z,5.58
2019-04-20T02:15:00.724Z,5.05
2019-04-20T02:19:19.597Z,5.47
2019-04-20T02:23:21.193Z,5.20
2019-04-20T02:27:20.572Z,4.95
2019-04-20T02:36:21.068Z,5.35
2019-04-20T02:40:32.857Z,5.15
2019-04-20T02:44:30.581Z,5.47
2019-04-20T02:48:42.701Z,5.25
2019-04-20T02:53:05.486Z,5.25
2019-04-20T02:56:57.562Z,5.47
2019-04-20T03:00:52.388Z,4.72
2019-04-20T03:04:45.277Z,5.40
2019-04-20T03:09:09.101Z,5.28
2019-04-20T03:13:17.117Z,5.55
2019-04-20T03:17:25.650Z,4.95
2019-04-20T03:21:27.284Z,5.00
2019-04-20T03:25:55.274Z,5.65
2019-04-20T03:30:22.763Z,5.15
2019-04-20T03:34:47.457Z,5.37
2019-04-20T03:38:30.197Z,4.95
2019-04-20T03:42:14.117Z,4.97
2019-04-20T03:46:30.088Z,5.20
2019-04-20T03:50:46.777Z,4.97
2019-04-20T03:55:15.065Z,5.30
2019-04-20T03:59:34.644Z,5.30
2019-04-20T04:04:09.483Z,5.20
2019-04-20T04:08:06.180Z,5.55
2019-04-20T04:12:44.550Z,4.87
2019-04-20T04:16:53.797Z,5.30
2019-04-20T04:21:01.922Z,4.92
2019-04-20T04:25:18.339Z,5.45
2019-04-20T04:29:34.631Z,5.28
2019-04-20T04:33:53.161Z,5.50
2019-04-20T04:37:51.403Z,4.90
2019-04-20T04:42:02.146Z,5.25
2019-04-20T04:45:40.565Z,5.00
2019-04-20T04:49:55.372Z,4.75
2019-04-20T04:54:01.789Z,5.15
2019-04-20T04:58:02.404Z,5.00
2019-04-20T05:02:08.030Z,4.80
2019-04-20T05:06:35.657Z,5.15
2019-04-20T05:10:26.977Z,5.15
2019-04-20T05:14:45.325Z,5.05
2019-04-20T05:19:07.723Z,4.85
2019-04-20T05:23:20.821Z,5.50
2019-04-20T05:27:44.174Z,5.20
2019-04-20T05:31:30.903Z,4.97
2019-04-20T05:35:58.929Z,4.97
2019-04-20T05:40:07.703Z,5.05
2019-04-20T05:44:25.975Z,4.90
2019-04-20T05:48:38.160Z,5.10
2019-04-20T05:52:50.972Z,4.87
2019-04-20T05:56:53.877Z,5.05
2019-04-20T06:01:06.767Z,6.90
2019-04-20T06:05:08.489Z,7.60
2019-04-20T06:09:16.573Z,9.15
2019-04-20T06:13:30.003Z,10.28
2019-04-20T06:18:13.823Z,7.95
2019-04-20T06:23:00.008Z,4.85
2019-04-20T06:27:00.882Z,4.87
2019-04-20T06:30:56.921Z,9.55
2019-04-20T06:35:18.951Z,9.88
2019-04-20T06:39:20.411Z,11.05
2019-04-20T06:43:25.479Z,4.37
2019-04-20T06:47:41.873Z,5.17
2019-04-20T06:51:47.656Z,4.53
2019-04-20T06:56:04.326Z,11.20
2019-04-20T07:00:07.363Z,5.03
2019-04-20T07:04:33.313Z,11.25
2019-04-20T07:08:33.371Z,8.95
2019-04-20T07:12:27.262Z,12.05
2019-04-20T07:17:00.137Z,11.48
2019-04-20T07:21:13.853Z,7.28
2019-04-20T07:25:19.188Z,11.68
2019-04-20T07:29:40.742Z,9.25
2019-04-20T07:33:46.815Z,11.85
2019-04-20T07:42:00.392Z,12.27
2019-04-20T07:46:10.477Z,11.53
2019-04-20T07:50:07.696Z,11.40
2019-04-20T07:54:33.173Z,5.80
2019-04-20T07:58:23.053Z,12.50
2019-04-20T08:02:58.715Z,12.58
2019-04-20T08:06:48.769Z,9.43
2019-04-20T08:11:10.311Z,11.20
2019-04-20T08:15:30.065Z,10.40
2019-04-20T08:19:23.377Z,9.03
2019-04-20T08:23:35.959Z,5.85
2019-04-20T08:27:27.566Z,5.17
2019-04-20T08:31:56.239Z,6.22
2019-04-20T08:36:12.255Z,8.28
2019-04-20T08:40:11.967Z,5.58
2019-04-20T08:44:42.219Z,8.78
2019-04-20T08:48:31.366Z,7.10
2019-04-20T08:53:01.267Z,7.20
2019-04-20T08:56:31.799Z,7.30
2019-04-20T09:00:33.155Z,5.95
2019-04-20T09:04:45.157Z,5.80
2019-04-20T09:08:55.505Z,5.28
2019-04-20T09:13:03.978Z,4.97
2019-04-20T09:17:32.587Z,5.28
2019-04-20T09:21:43.629Z,5.03
2019-04-20T09:26:00.385Z,4.58
2019-04-20T09:30:07.764Z,4.28
2019-04-20T09:34:26.137Z,4.12
2019-04-20T09:38:34.810Z,4.03
2019-04-20T09:42:32.618Z,4.40
2019-04-20T09:46:44.249Z,4.25
2019-04-20T09:51:02.373Z,4.75
2019-04-20T09:55:07.853Z,3.72
2019-04-20T09:59:25.214Z,4.03
2019-04-20T10:03:10.743Z,3.85
2019-04-20T10:07:21.373Z,3.87
2019-04-20T10:11:23.713Z,3.83
2019-04-20T10:15:30.995Z,4.03
2019-04-20T10:19:39.433Z,3.75
2019-04-20T10:23:44.905Z,4.20
2019-04-20T10:27:51.542Z,4.40
2019-04-20T10:31:59.246Z,4.12
2019-04-20T10:36:05.714Z,4.00
2019-04-20T10:40:11.609Z,3.92
2019-04-20T10:44:17.276Z,3.95
2019-04-20T10:48:23.519Z,3.77
2019-04-20T10:52:29.777Z,3.52
2019-04-20T10:56:35.381Z,3.40
2019-04-20T11:00:43.844Z,3.52
2019-04-20T11:04:50.635Z,3.90
2019-04-20T11:08:56.396Z,3.00
2019-04-20T11:13:03.196Z,3.67
2019-04-20T11:17:09.641Z,3.10
2019-04-20T11:21:15.451Z,3.52
2019-04-20T11:25:22.103Z,3.40
2019-04-20T11:29:28.455Z,2.75
2019-04-20T11:33:34.301Z,2.98
2019-04-20T11:37:39.902Z,3.12
2019-04-20T11:41:45.774Z,2.80
2019-04-20T11:45:51.761Z,3.10
2019-04-20T11:49:57.618Z,3.10
2019-04-20T11:54:04.230Z,3.90
2019-04-20T11:58:10.119Z,3.77
2019-04-20T12:02:34.949Z,3.80
2019-04-20T12:06:36.910Z,3.35
2019-04-20T12:10:43.772Z,2.90
2019-04-20T12:14:50.563Z,2.67
2019-04-20T12:18:56.781Z,2.87
2019-04-20T12:23:02.593Z,3.12
2019-04-20T12:27:08.865Z,3.92
2019-04-20T12:31:29.482Z,2.90
2019-04-20T12:35:36.114Z,2.80
2019-04-20T12:39:53.294Z,3.55
2019-04-20T12:44:01.705Z,2.87
2019-04-20T12:48:08.172Z,2.47
2019-04-20T12:52:14.446Z,2.62
2019-04-20T12:56:22.318Z,3.40
2019-04-20T13:00:43.604Z,2.67
2019-04-20T13:04:51.179Z,2.87
2019-04-20T13:09:00.300Z,2.98
2019-04-20T13:13:36.548Z,4.20
2019-04-20T13:17:42.340Z,4.00
2019-04-20T13:21:49.203Z,4.03
2019-04-20T13:25:55.019Z,2.45
2019-04-20T13:30:00.888Z,2.85
2019-04-20T13:34:07.584Z,2.67
2019-04-20T13:38:14.183Z,2.77
2019-04-20T13:42:24.801Z,3.33
2019-04-20T13:46:27.257Z,2.90
2019-04-20T13:50:33.888Z,2.58
2019-04-20T13:54:40.055Z,2.25
2019-04-20T13:59:01.835Z,2.60
2019-04-20T14:03:09.014Z,3.00
2019-04-20T14:07:17.025Z,2.75
2019-04-20T14:11:23.189Z,3.00
2019-04-20T14:15:29.150Z,2.60
2019-04-20T14:19:34.887Z,3.35
2019-04-20T14:23:41.140Z,3.02
2019-04-20T14:27:47.095Z,2.42
2019-04-20T14:31:52.675Z,2.50
2019-04-20T14:35:59.057Z,2.42
2019-04-20T14:40:06.155Z,2.60
2019-04-20T14:44:12.155Z,2.80
2019-04-20T14:48:18.566Z,2.83
2019-04-20T14:52:25.783Z,3.08
2019-04-20T14:56:31.740Z,2.90
2019-04-20T15:00:53.066Z,2.42
2019-04-20T15:04:59.061Z,2.67
2019-04-20T15:09:06.901Z,2.45
2019-04-20T15:13:14.890Z,2.55
2019-04-20T15:17:33.258Z,2.20
2019-04-20T15:21:39.725Z,2.40
2019-04-20T15:25:46.457Z,2.47
2019-04-20T15:29:52.144Z,2.47
2019-04-20T15:33:59.029Z,2.58
2019-04-20T15:38:05.108Z,2.58
2019-04-20T15:42:11.568Z,2.80
2019-04-20T15:46:17.357Z,2.50
2019-04-20T15:50:22.912Z,3.47
2019-04-20T15:54:29.614Z,3.50
2019-04-20T15:58:36.459Z,3.02
2019-04-20T16:03:07.391Z,2.30
2019-04-20T16:07:15.065Z,2.40
2019-04-20T16:11:21.520Z,2.62
2019-04-20T16:15:27.563Z,2.37
2019-04-20T16:19:44.942Z,2.80
2019-04-20T16:24:18.974Z,2.25
2019-04-20T16:28:25.671Z,2.58
2019-04-20T16:32:32.363Z,2.30
2019-04-20T16:36:39.142Z,2.50
2019-04-20T16:40:46.212Z,2.35
2019-04-20T16:44:53.467Z,2.42
2019-04-20T16:48:59.425Z,2.27
2019-04-20T16:53:06.709Z,2.17
2019-04-20T16:57:13.105Z,2.77
2019-04-20T17:01:21.364Z,3.50
2019-04-20T17:05:27.630Z,2.30
2019-04-20T17:09:33.807Z,3.47
2019-04-20T17:13:47.476Z,2.87
2019-04-20T17:17:49.547Z,2.50
2019-04-20T17:21:57.107Z,2.85
2019-04-20T17:26:03.994Z,2.77
2019-04-20T17:30:29.432Z,3.00
2019-04-20T17:34:46.814Z,2.50
2019-04-20T17:38:48.500Z,2.58
2019-04-20T17:43:00.011Z,2.62
2019-04-20T17:47:09.661Z,2.70
2019-04-20T17:51:28.716Z,2.37
2019-04-20T17:55:30.211Z,3.30
2019-04-20T17:59:30.415Z,6.97
2019-04-20T18:04:10.812Z,5.97
2019-04-20T18:08:15.470Z,4.25
2019-04-20T18:12:04.787Z,4.70
2019-04-20T18:16:36.837Z,3.90
2019-04-20T18:20:34.706Z,4.25
2019-04-20T18:25:01.861Z,4.08
2019-04-20T18:29:26.228Z,3.80
2019-04-20T18:32:55.720Z,3.70
2019-04-20T18:37:07.651Z,3.77
2019-04-20T18:41:23.077Z,3.85
2019-04-20T18:45:33.767Z,3.85
2019-04-20T18:49:38.498Z,3.85
2019-04-20T18:53:39.233Z,3.50
2019-04-20T18:57:48.934Z,3.87
2019-04-20T19:01:50.906Z,4.00
2019-04-20T19:05:57.934Z,3.77
2019-04-20T19:10:13.888Z,3.75
2019-04-20T19:14:40.893Z,3.15
2019-04-20T19:19:00.621Z,3.90
2019-04-20T19:22:58.071Z,3.77
2019-04-20T19:27:10.203Z,3.70
2019-04-20T19:31:30.853Z,3.60
2019-04-20T19:35:33.651Z,4.00
2019-04-20T19:39:45.993Z,4.22
2019-04-20T19:43:48.399Z,4.03
2019-04-20T19:48:01.931Z,4.08
2019-04-20T19:52:27.235Z,4.20
2019-04-20T19:56:10.725Z,3.87
2019-04-20T20:00:10.139Z,4.08
2019-04-20T20:04:17.579Z,4.00
2019-04-20T20:08:26.009Z,4.20
2019-04-20T20:12:31.563Z,4.10
2019-04-20T20:16:55.993Z,4.37
2019-04-20T20:21:00.852Z,4.03
2019-04-20T20:24:52.565Z,4.75
2019-04-20T20:29:10.942Z,4.50
2019-04-20T20:33:22.114Z,4.53
2019-04-20T20:37:25.414Z,4.47
2019-04-20T20:41:28.975Z,4.42
2019-04-20T20:45:38.417Z,4.55
2019-04-20T20:50:05.878Z,4.55
2019-04-20T20:53:56.512Z,4.25
2019-04-20T20:58:01.777Z,4.40
2019-04-20T21:02:08.873Z,4.42
2019-04-20T21:06:11.663Z,4.12
2019-04-20T21:10:25.657Z,4.45
2019-04-20T21:14:29.247Z,4.17
2019-04-20T21:18:50.346Z,4.25
2019-04-20T21:22:54.807Z,3.85
2019-04-20T21:26:49.581Z,4.03
2019-04-20T21:30:58.741Z,4.25
2019-04-20T21:35:08.507Z,4.30
2019-04-20T21:39:20.696Z,4.30
2019-04-20T21:43:20.703Z,4.22
2019-04-20T21:47:31.492Z,4.25
2019-04-20T21:51:44.553Z,4.47
2019-04-20T21:55:43.723Z,3.98
2019-04-20T21:59:54.262Z,4.60
2019-04-20T22:03:58.733Z,4.15
2019-04-20T22:08:07.912Z,4.50
2019-04-20T22:12:12.036Z,4.72
2019-04-20T22:16:18.956Z,4.83
2019-04-20T22:20:33.474Z,4.70
2019-04-20T22:24:46.525Z,5.12
2019-04-20T22:28:40.341Z,5.00
2019-04-20T22:32:49.947Z,5.30
2019-04-20T22:36:55.858Z,4.90
2019-04-20T22:41:07.732Z,4.95
2019-04-20T22:45:13.346Z,5.08
2019-04-20T22:49:33.417Z,5.20
2019-04-20T22:53:36.392Z,5.65
2019-04-20T22:57:47.332Z,4.95
2019-04-20T23:01:45.741Z,5.47
2019-04-20T23:05:47.113Z,5.20
2019-04-20T23:09:56.442Z,5.20
2019-04-20T23:14:00.521Z,5.00
2019-04-20T23:18:06.376Z,5.53
2019-04-20T23:22:13.990Z,5.58
2019-04-20T23:26:25.524Z,5.30
2019-04-20T23:30:31.443Z,5.60
2019-04-20T23:34:36.055Z,5.12
2019-04-20T23:38:44.329Z,4.80
2019-04-20T23:42:55.823Z,4.75
2019-04-20T23:47:13.741Z,4.83
2019-04-20T23:51:39.058Z,4.80
2019-04-20T23:55:23.889Z,4.72
2019-04-20T23:59:35.371Z,4.90
